sensor_id;sensor_type;location;lat;lon;timestamp;temperature;humidity
20376;DHT22;10347;51.828;6.466;2023-01-29T00:00:00;3.00;99.90
20376;DHT22;10347;51.828;6.466;2023-01-29T00:02:26;3.00;99.90
20376;DHT22;10347;51.828;6.466;2023-01-29T00:04:52;3.00;99.90
20376;DHT22;10347;51.828;6.466;2023-01-29T00:07:18;3.00;99.90
20376;DHT22;10347;51.828;6.466;2023-01-29T00:09:43;3.00;99.90
20376;DHT22;10347;51.828;6.466;2023-01-29T00:12:09;3.00;99.90
20376;DHT22;10347;51.828;6.466;2023-01-29T00:14:34;3.10;99.90
20376;DHT22;10347;51.828;6.466;2023-01-29T00:17:00;3.10;99.90
20376;DHT22;10347;51.828;6.466;2023-01-29T00:19:26;3.10;99.90
20376;DHT22;10347;51.828;6.466;2023-01-29T00:21:52;3.10;99.90
20376;DHT22;10347;51.828;6.466;2023-01-29T00:24:17;3.00;99.90
20376;DHT22;10347;51.828;6.466;2023-01-29T00:26:43;3.00;99.90
20376;DHT22;10347;51.828;6.466;2023-01-29T00:29:09;3.00;99.90
20376;DHT22;10347;51.828;6.466;2023-01-29T00:31:34;3.00;99.90
20376;DHT22;10347;51.828;6.466;2023-01-29T00:34:00;3.00;99.90
20376;DHT22;10347;51.828;6.466;2023-01-29T00:36:26;3.00;99.90
20376;DHT22;10347;51.828;6.466;2023-01-29T00:38:56;3.00;99.90
20376;DHT22;10347;51.828;6.466;2023-01-29T00:41:28;3.00;99.90
20376;DHT22;10347;51.828;6.466;2023-01-29T00:44:13;3.00;99.90
20376;DHT22;10347;51.828;6.466;2023-01-29T00:46:57;3.00;99.90
20376;DHT22;10347;51.828;6.466;2023-01-29T00:49:23;3.00;99.90
20376;DHT22;10347;51.828;6.466;2023-01-29T00:51:49;3.00;99.90
20376;DHT22;10347;51.828;6.466;2023-01-29T00:54:33;3.00;99.90
20376;DHT22;10347;51.828;6.466;2023-01-29T00:56:59;3.00;99.90
20376;DHT22;10347;51.828;6.466;2023-01-29T00:59:25;3.00;99.90
20376;DHT22;10347;51.828;6.466;2023-01-29T01:01:50;3.00;99.90
20376;DHT22;10347;51.828;6.466;2023-01-29T01:04:34;3.00;99.90
20376;DHT22;10347;51.828;6.466;2023-01-29T01:07:00;3.00;99.90
20376;DHT22;10347;51.828;6.466;2023-01-29T01:09:25;3.00;99.90
20376;DHT22;10347;51.828;6.466;2023-01-29T01:12:10;3.00;99.90
20376;DHT22;10347;51.828;6.466;2023-01-29T01:14:35;3.10;99.90
20376;DHT22;10347;51.828;6.466;2023-01-29T01:17:01;3.00;99.90
20376;DHT22;10347;51.828;6.466;2023-01-29T01:19:26;3.00;99.90
20376;DHT22;10347;51.828;6.466;2023-01-29T01:21:52;3.00;99.90
20376;DHT22;10347;51.828;6.466;2023-01-29T01:24:17;3.00;99.90
20376;DHT22;10347;51.828;6.466;2023-01-29T01:26:45;3.00;99.90
20376;DHT22;10347;51.828;6.466;2023-01-29T01:29:11;3.00;99.90
20376;DHT22;10347;51.828;6.466;2023-01-29T01:31:37;3.00;99.90
20376;DHT22;10347;51.828;6.466;2023-01-29T01:34:02;3.00;99.90
20376;DHT22;10347;51.828;6.466;2023-01-29T01:36:28;3.00;99.90
20376;DHT22;10347;51.828;6.466;2023-01-29T01:38:54;3.10;99.90
20376;DHT22;10347;51.828;6.466;2023-01-29T01:41:20;3.00;99.90
20376;DHT22;10347;51.828;6.466;2023-01-29T01:44:00;3.00;99.90
20376;DHT22;10347;51.828;6.466;2023-01-29T01:46:33;3.00;99.90
20376;DHT22;10347;51.828;6.466;2023-01-29T01:49:25;3.00;99.90
20376;DHT22;10347;51.828;6.466;2023-01-29T01:51:51;3.00;99.90
20376;DHT22;10347;51.828;6.466;2023-01-29T01:54:24;3.00;99.90
20376;DHT22;10347;51.828;6.466;2023-01-29T01:56:56;3.00;99.90
20376;DHT22;10347;51.828;6.466;2023-01-29T01:59:34;3.00;99.90
20376;DHT22;10347;51.828;6.466;2023-01-29T02:02:02;3.00;99.90
20376;DHT22;10347;51.828;6.466;2023-01-29T02:04:47;3.00;99.90
20376;DHT22;10347;51.828;6.466;2023-01-29T02:07:33;3.00;99.90
20376;DHT22;10347;51.828;6.466;2023-01-29T02:10:18;3.00;99.90
20376;DHT22;10347;51.828;6.466;2023-01-29T02:12:44;2.90;99.90
20376;DHT22;10347;51.828;6.466;2023-01-29T02:15:11;2.90;99.90
20376;DHT22;10347;51.828;6.466;2023-01-29T02:17:37;2.90;99.90
20376;DHT22;10347;51.828;6.466;2023-01-29T02:20:20;2.90;99.90
20376;DHT22;10347;51.828;6.466;2023-01-29T02:25:49;2.90;99.90
20376;DHT22;10347;51.828;6.466;2023-01-29T02:33:41;2.80;99.90
20376;DHT22;10347;51.828;6.466;2023-01-29T02:36:59;2.80;99.90
20376;DHT22;10347;51.828;6.466;2023-01-29T02:39:16;2.90;99.90
20376;DHT22;10347;51.828;6.466;2023-01-29T02:47:29;2.90;99.90
20376;DHT22;10347;51.828;6.466;2023-01-29T02:55:11;2.90;99.90
20376;DHT22;10347;51.828;6.466;2023-01-29T02:57:40;2.80;99.90
20376;DHT22;10347;51.828;6.466;2023-01-29T03:02:44;2.80;99.90
20376;DHT22;10347;51.828;6.466;2023-01-29T03:05:15;2.80;99.90
20376;DHT22;10347;51.828;6.466;2023-01-29T03:07:49;2.80;99.90
20376;DHT22;10347;51.828;6.466;2023-01-29T03:13:05;2.80;99.90
20376;DHT22;10347;51.828;6.466;2023-01-29T03:15:42;2.80;99.90
20376;DHT22;10347;51.828;6.466;2023-01-29T03:18:17;2.70;99.90
20376;DHT22;10347;51.828;6.466;2023-01-29T03:20:50;2.70;99.90
20376;DHT22;10347;51.828;6.466;2023-01-29T03:23:24;2.70;99.90
20376;DHT22;10347;51.828;6.466;2023-01-29T03:26:16;2.70;99.90
20376;DHT22;10347;51.828;6.466;2023-01-29T03:29:03;2.70;99.90
20376;DHT22;10347;51.828;6.466;2023-01-29T03:31:49;2.70;99.90
20376;DHT22;10347;51.828;6.466;2023-01-29T03:34:29;2.70;99.90
20376;DHT22;10347;51.828;6.466;2023-01-29T03:37:04;2.70;99.90
20376;DHT22;10347;51.828;6.466;2023-01-29T03:39:33;2.70;99.90
20376;DHT22;10347;51.828;6.466;2023-01-29T03:42:11;2.70;99.90
20376;DHT22;10347;51.828;6.466;2023-01-29T03:44:57;2.70;99.90
20376;DHT22;10347;51.828;6.466;2023-01-29T03:48:06;2.70;99.90
20376;DHT22;10347;51.828;6.466;2023-01-29T03:50:40;2.70;99.90
20376;DHT22;10347;51.828;6.466;2023-01-29T03:53:38;2.60;99.90
20376;DHT22;10347;51.828;6.466;2023-01-29T03:58:59;2.60;99.90
20376;DHT22;10347;51.828;6.466;2023-01-29T04:01:35;2.60;99.90
20376;DHT22;10347;51.828;6.466;2023-01-29T04:06:33;2.60;99.90
20376;DHT22;10347;51.828;6.466;2023-01-29T04:09:06;2.60;99.90
20376;DHT22;10347;51.828;6.466;2023-01-29T04:11:36;2.60;99.90
20376;DHT22;10347;51.828;6.466;2023-01-29T04:14:06;2.60;99.90
20376;DHT22;10347;51.828;6.466;2023-01-29T04:16:35;2.60;99.90
20376;DHT22;10347;51.828;6.466;2023-01-29T04:19:02;2.50;99.90
20376;DHT22;10347;51.828;6.466;2023-01-29T04:21:29;2.50;99.90
20376;DHT22;10347;51.828;6.466;2023-01-29T04:23:56;2.60;99.90
20376;DHT22;10347;51.828;6.466;2023-01-29T04:38:55;2.60;99.90
20376;DHT22;10347;51.828;6.466;2023-01-29T04:43:59;2.60;99.90
20376;DHT22;10347;51.828;6.466;2023-01-29T04:49:58;2.50;99.90
20376;DHT22;10347;51.828;6.466;2023-01-29T04:52:21;2.50;99.90
20376;DHT22;10347;51.828;6.466;2023-01-29T04:57:51;2.50;99.90
20376;DHT22;10347;51.828;6.466;2023-01-29T05:00:25;2.50;99.90
20376;DHT22;10347;51.828;6.466;2023-01-29T05:02:52;2.50;99.90
20376;DHT22;10347;51.828;6.466;2023-01-29T05:07:57;2.40;99.90
20376;DHT22;10347;51.828;6.466;2023-01-29T05:10:24;2.40;99.90
20376;DHT22;10347;51.828;6.466;2023-01-29T05:12:53;2.40;99.90
20376;DHT22;10347;51.828;6.466;2023-01-29T05:15:27;2.40;99.90
20376;DHT22;10347;51.828;6.466;2023-01-29T05:17:53;2.40;99.90
20376;DHT22;10347;51.828;6.466;2023-01-29T05:20:26;2.40;99.90
20376;DHT22;10347;51.828;6.466;2023-01-29T05:22:53;2.40;99.90
20376;DHT22;10347;51.828;6.466;2023-01-29T05:25:24;2.40;99.90
20376;DHT22;10347;51.828;6.466;2023-01-29T05:27:51;2.40;99.90
20376;DHT22;10347;51.828;6.466;2023-01-29T05:30:31;2.40;99.90
20376;DHT22;10347;51.828;6.466;2023-01-29T05:32:57;2.40;99.90
20376;DHT22;10347;51.828;6.466;2023-01-29T05:35:22;2.40;99.90
20376;DHT22;10347;51.828;6.466;2023-01-29T05:37:48;2.50;99.90
20376;DHT22;10347;51.828;6.466;2023-01-29T05:40:14;2.50;99.90
20376;DHT22;10347;51.828;6.466;2023-01-29T05:42:39;2.50;99.90
20376;DHT22;10347;51.828;6.466;2023-01-29T05:45:05;2.50;99.90
20376;DHT22;10347;51.828;6.466;2023-01-29T05:47:31;2.50;99.90
20376;DHT22;10347;51.828;6.466;2023-01-29T05:49:56;2.50;99.90
20376;DHT22;10347;51.828;6.466;2023-01-29T05:52:22;2.50;99.90
20376;DHT22;10347;51.828;6.466;2023-01-29T05:54:47;2.60;99.90
20376;DHT22;10347;51.828;6.466;2023-01-29T05:57:14;2.60;99.90
20376;DHT22;10347;51.828;6.466;2023-01-29T05:59:39;2.60;99.90
20376;DHT22;10347;51.828;6.466;2023-01-29T06:02:05;2.60;99.90
20376;DHT22;10347;51.828;6.466;2023-01-29T06:04:31;2.60;99.90
20376;DHT22;10347;51.828;6.466;2023-01-29T06:06:56;2.60;99.90
20376;DHT22;10347;51.828;6.466;2023-01-29T06:09:22;2.60;99.90
20376;DHT22;10347;51.828;6.466;2023-01-29T06:11:47;2.60;99.90
20376;DHT22;10347;51.828;6.466;2023-01-29T06:14:13;2.60;99.90
20376;DHT22;10347;51.828;6.466;2023-01-29T06:16:38;2.60;99.90
20376;DHT22;10347;51.828;6.466;2023-01-29T06:19:04;2.60;99.90
20376;DHT22;10347;51.828;6.466;2023-01-29T06:21:29;2.60;99.90
20376;DHT22;10347;51.828;6.466;2023-01-29T06:23:55;2.60;99.90
20376;DHT22;10347;51.828;6.466;2023-01-29T06:26:20;2.60;99.90
20376;DHT22;10347;51.828;6.466;2023-01-29T06:28:49;2.60;99.90
20376;DHT22;10347;51.828;6.466;2023-01-29T06:31:15;2.60;99.90
20376;DHT22;10347;51.828;6.466;2023-01-29T06:33:40;2.60;99.90
20376;DHT22;10347;51.828;6.466;2023-01-29T06:36:06;2.40;99.90
20376;DHT22;10347;51.828;6.466;2023-01-29T06:38:32;2.60;99.90
20376;DHT22;10347;51.828;6.466;2023-01-29T06:40:58;2.60;99.90
20376;DHT22;10347;51.828;6.466;2023-01-29T06:43:23;2.60;99.90
20376;DHT22;10347;51.828;6.466;2023-01-29T06:45:56;2.60;99.90
20376;DHT22;10347;51.828;6.466;2023-01-29T06:48:23;2.60;99.90
20376;DHT22;10347;51.828;6.466;2023-01-29T06:50:49;2.60;99.90
20376;DHT22;10347;51.828;6.466;2023-01-29T06:53:15;2.60;99.90
20376;DHT22;10347;51.828;6.466;2023-01-29T06:55:41;2.60;99.90
20376;DHT22;10347;51.828;6.466;2023-01-29T06:58:09;2.60;99.90
20376;DHT22;10347;51.828;6.466;2023-01-29T07:00:35;2.60;99.90
20376;DHT22;10347;51.828;6.466;2023-01-29T07:03:01;2.60;99.90
20376;DHT22;10347;51.828;6.466;2023-01-29T07:05:27;2.60;99.90
20376;DHT22;10347;51.828;6.466;2023-01-29T07:07:52;2.60;99.90
20376;DHT22;10347;51.828;6.466;2023-01-29T07:10:18;2.60;99.90
20376;DHT22;10347;51.828;6.466;2023-01-29T07:12:44;2.50;99.90
20376;DHT22;10347;51.828;6.466;2023-01-29T07:15:10;2.50;99.90
20376;DHT22;10347;51.828;6.466;2023-01-29T07:17:37;2.60;99.90
20376;DHT22;10347;51.828;6.466;2023-01-29T07:20:04;2.50;99.90
20376;DHT22;10347;51.828;6.466;2023-01-29T07:22:30;2.60;99.90
20376;DHT22;10347;51.828;6.466;2023-01-29T07:24:56;2.60;99.90
20376;DHT22;10347;51.828;6.466;2023-01-29T07:27:21;2.60;99.90
20376;DHT22;10347;51.828;6.466;2023-01-29T07:29:47;2.60;99.90
20376;DHT22;10347;51.828;6.466;2023-01-29T07:32:13;2.60;99.90
20376;DHT22;10347;51.828;6.466;2023-01-29T07:34:38;2.60;99.90
20376;DHT22;10347;51.828;6.466;2023-01-29T07:37:04;2.60;99.90
20376;DHT22;10347;51.828;6.466;2023-01-29T07:39:30;2.60;99.90
20376;DHT22;10347;51.828;6.466;2023-01-29T07:41:56;2.60;99.90
20376;DHT22;10347;51.828;6.466;2023-01-29T07:44:22;2.60;99.90
20376;DHT22;10347;51.828;6.466;2023-01-29T07:46:47;2.60;99.90
20376;DHT22;10347;51.828;6.466;2023-01-29T07:49:13;2.60;99.90
20376;DHT22;10347;51.828;6.466;2023-01-29T07:51:39;2.60;99.90
20376;DHT22;10347;51.828;6.466;2023-01-29T07:54:04;2.60;99.90
20376;DHT22;10347;51.828;6.466;2023-01-29T07:56:30;2.60;99.90
20376;DHT22;10347;51.828;6.466;2023-01-29T07:58:55;2.60;99.90
20376;DHT22;10347;51.828;6.466;2023-01-29T08:01:21;2.70;99.90
20376;DHT22;10347;51.828;6.466;2023-01-29T08:03:47;2.70;99.90
20376;DHT22;10347;51.828;6.466;2023-01-29T08:06:12;2.70;99.90
20376;DHT22;10347;51.828;6.466;2023-01-29T08:08:38;2.60;99.90
20376;DHT22;10347;51.828;6.466;2023-01-29T08:11:04;2.70;99.90
20376;DHT22;10347;51.828;6.466;2023-01-29T08:13:30;2.60;99.90
20376;DHT22;10347;51.828;6.466;2023-01-29T08:16:02;2.60;99.90
20376;DHT22;10347;51.828;6.466;2023-01-29T08:18:28;2.70;99.90
20376;DHT22;10347;51.828;6.466;2023-01-29T08:21:01;2.70;99.90
20376;DHT22;10347;51.828;6.466;2023-01-29T08:23:27;2.70;99.90
20376;DHT22;10347;51.828;6.466;2023-01-29T08:25:53;2.70;99.90
20376;DHT22;10347;51.828;6.466;2023-01-29T08:28:18;2.70;99.90
20376;DHT22;10347;51.828;6.466;2023-01-29T08:30:44;2.70;99.90
20376;DHT22;10347;51.828;6.466;2023-01-29T08:33:09;2.70;99.90
20376;DHT22;10347;51.828;6.466;2023-01-29T08:35:35;2.70;99.90
20376;DHT22;10347;51.828;6.466;2023-01-29T08:38:02;2.70;99.90
20376;DHT22;10347;51.828;6.466;2023-01-29T08:40:32;2.70;99.90
20376;DHT22;10347;51.828;6.466;2023-01-29T08:43:02;2.70;99.90
20376;DHT22;10347;51.828;6.466;2023-01-29T08:45:28;2.70;99.90
20376;DHT22;10347;51.828;6.466;2023-01-29T08:47:54;2.70;99.90
20376;DHT22;10347;51.828;6.466;2023-01-29T08:50:19;2.70;99.90
20376;DHT22;10347;51.828;6.466;2023-01-29T08:52:45;2.70;99.90
20376;DHT22;10347;51.828;6.466;2023-01-29T08:55:11;2.70;99.90
20376;DHT22;10347;51.828;6.466;2023-01-29T08:57:37;2.70;99.90
20376;DHT22;10347;51.828;6.466;2023-01-29T09:00:05;2.70;99.90
20376;DHT22;10347;51.828;6.466;2023-01-29T09:02:31;2.70;99.90
20376;DHT22;10347;51.828;6.466;2023-01-29T09:04:57;2.80;99.90
20376;DHT22;10347;51.828;6.466;2023-01-29T09:07:22;2.80;99.90
20376;DHT22;10347;51.828;6.466;2023-01-29T09:09:48;2.80;99.90
20376;DHT22;10347;51.828;6.466;2023-01-29T09:12:13;2.80;99.90
20376;DHT22;10347;51.828;6.466;2023-01-29T09:14:39;2.90;99.90
20376;DHT22;10347;51.828;6.466;2023-01-29T09:17:07;2.90;99.90
20376;DHT22;10347;51.828;6.466;2023-01-29T09:19:35;2.90;99.90
20376;DHT22;10347;51.828;6.466;2023-01-29T09:22:01;2.90;99.90
20376;DHT22;10347;51.828;6.466;2023-01-29T09:24:26;2.90;99.90
20376;DHT22;10347;51.828;6.466;2023-01-29T09:26:52;3.00;99.90
20376;DHT22;10347;51.828;6.466;2023-01-29T09:29:17;3.00;99.90
20376;DHT22;10347;51.828;6.466;2023-01-29T09:31:43;3.00;99.90
20376;DHT22;10347;51.828;6.466;2023-01-29T09:34:08;3.00;99.90
20376;DHT22;10347;51.828;6.466;2023-01-29T09:36:34;3.00;99.90
20376;DHT22;10347;51.828;6.466;2023-01-29T09:38:59;3.00;99.90
20376;DHT22;10347;51.828;6.466;2023-01-29T09:41:47;3.00;99.90
20376;DHT22;10347;51.828;6.466;2023-01-29T09:47:13;3.10;99.90
20376;DHT22;10347;51.828;6.466;2023-01-29T09:49:44;3.10;99.90
20376;DHT22;10347;51.828;6.466;2023-01-29T09:52:25;3.20;99.90
20376;DHT22;10347;51.828;6.466;2023-01-29T09:57:58;3.20;99.90
20376;DHT22;10347;51.828;6.466;2023-01-29T10:03:54;3.20;99.90
20376;DHT22;10347;51.828;6.466;2023-01-29T10:06:36;3.30;99.90
20376;DHT22;10347;51.828;6.466;2023-01-29T10:23:28;3.30;99.90
20376;DHT22;10347;51.828;6.466;2023-01-29T10:25:55;3.40;99.90
20376;DHT22;10347;51.828;6.466;2023-01-29T10:28:38;3.40;99.90
20376;DHT22;10347;51.828;6.466;2023-01-29T10:31:33;3.40;99.90
20376;DHT22;10347;51.828;6.466;2023-01-29T10:36:53;3.40;99.90
20376;DHT22;10347;51.828;6.466;2023-01-29T10:39:21;3.40;99.90
20376;DHT22;10347;51.828;6.466;2023-01-29T10:50:54;3.40;99.90
20376;DHT22;10347;51.828;6.466;2023-01-29T10:53:46;3.40;99.90
20376;DHT22;10347;51.828;6.466;2023-01-29T10:56:36;3.40;99.90
20376;DHT22;10347;51.828;6.466;2023-01-29T11:01:45;3.40;99.90
20376;DHT22;10347;51.828;6.466;2023-01-29T11:04:11;3.40;99.90
20376;DHT22;10347;51.828;6.466;2023-01-29T11:06:37;3.40;99.90
20376;DHT22;10347;51.828;6.466;2023-01-29T11:09:23;3.50;99.90
20376;DHT22;10347;51.828;6.466;2023-01-29T11:12:00;3.50;99.90
20376;DHT22;10347;51.828;6.466;2023-01-29T11:14:50;3.50;99.90
20376;DHT22;10347;51.828;6.466;2023-01-29T11:17:20;3.60;99.90
20376;DHT22;10347;51.828;6.466;2023-01-29T11:19:47;3.60;99.90
20376;DHT22;10347;51.828;6.466;2023-01-29T11:24:41;3.60;99.90
20376;DHT22;10347;51.828;6.466;2023-01-29T11:27:24;3.60;99.90
20376;DHT22;10347;51.828;6.466;2023-01-29T11:29:52;3.60;99.90
20376;DHT22;10347;51.828;6.466;2023-01-29T11:35:16;3.70;99.90
20376;DHT22;10347;51.828;6.466;2023-01-29T11:37:45;3.70;99.90
20376;DHT22;10347;51.828;6.466;2023-01-29T11:40:36;3.70;99.90
20376;DHT22;10347;51.828;6.466;2023-01-29T11:45:38;3.70;99.90
20376;DHT22;10347;51.828;6.466;2023-01-29T11:48:04;3.80;99.90
20376;DHT22;10347;51.828;6.466;2023-01-29T11:50:36;3.80;99.90
20376;DHT22;10347;51.828;6.466;2023-01-29T11:53:02;3.80;99.90
20376;DHT22;10347;51.828;6.466;2023-01-29T11:55:32;3.80;99.90
20376;DHT22;10347;51.828;6.466;2023-01-29T11:58:13;3.80;99.90
20376;DHT22;10347;51.828;6.466;2023-01-29T12:00:46;3.90;99.90
20376;DHT22;10347;51.828;6.466;2023-01-29T12:03:21;3.80;99.90
20376;DHT22;10347;51.828;6.466;2023-01-29T12:05:55;3.90;99.90
20376;DHT22;10347;51.828;6.466;2023-01-29T12:08:23;3.90;99.90
20376;DHT22;10347;51.828;6.466;2023-01-29T12:10:49;3.90;99.90
20376;DHT22;10347;51.828;6.466;2023-01-29T12:13:24;3.90;99.90
20376;DHT22;10347;51.828;6.466;2023-01-29T12:16:12;3.90;99.90
20376;DHT22;10347;51.828;6.466;2023-01-29T12:18:43;3.90;99.90
20376;DHT22;10347;51.828;6.466;2023-01-29T12:24:01;3.90;99.90
20376;DHT22;10347;51.828;6.466;2023-01-29T12:26:34;3.90;99.90
20376;DHT22;10347;51.828;6.466;2023-01-29T12:34:32;3.90;99.90
20376;DHT22;10347;51.828;6.466;2023-01-29T12:37:50;4.00;99.90
20376;DHT22;10347;51.828;6.466;2023-01-29T12:39:50;4.00;99.90
20376;DHT22;10347;51.828;6.466;2023-01-29T12:42:20;4.00;99.90
20376;DHT22;10347;51.828;6.466;2023-01-29T12:44:53;4.00;99.90
20376;DHT22;10347;51.828;6.466;2023-01-29T12:47:42;4.10;99.90
20376;DHT22;10347;51.828;6.466;2023-01-29T12:50:30;4.10;99.90
20376;DHT22;10347;51.828;6.466;2023-01-29T12:55:36;4.10;99.90
20376;DHT22;10347;51.828;6.466;2023-01-29T12:58:54;4.10;99.90
20376;DHT22;10347;51.828;6.466;2023-01-29T13:00:56;4.10;99.90
20376;DHT22;10347;51.828;6.466;2023-01-29T13:03:32;4.20;99.90
20376;DHT22;10347;51.828;6.466;2023-01-29T13:06:02;4.10;99.90
20376;DHT22;10347;51.828;6.466;2023-01-29T13:08:35;4.20;99.90
20376;DHT22;10347;51.828;6.466;2023-01-29T13:11:08;4.20;99.90
20376;DHT22;10347;51.828;6.466;2023-01-29T13:13:47;4.20;99.90
20376;DHT22;10347;51.828;6.466;2023-01-29T13:16:19;4.20;99.90
20376;DHT22;10347;51.828;6.466;2023-01-29T13:18:55;4.20;99.90
20376;DHT22;10347;51.828;6.466;2023-01-29T13:21:26;4.20;99.90
20376;DHT22;10347;51.828;6.466;2023-01-29T13:24:01;4.20;99.90
20376;DHT22;10347;51.828;6.466;2023-01-29T13:26:27;4.20;99.90
20376;DHT22;10347;51.828;6.466;2023-01-29T13:28:53;4.20;99.90
20376;DHT22;10347;51.828;6.466;2023-01-29T13:31:29;4.30;99.90
20376;DHT22;10347;51.828;6.466;2023-01-29T13:34:12;4.30;99.90
20376;DHT22;10347;51.828;6.466;2023-01-29T13:37:08;4.30;99.90
20376;DHT22;10347;51.828;6.466;2023-01-29T13:39:36;4.30;99.90
20376;DHT22;10347;51.828;6.466;2023-01-29T13:42:31;4.30;99.90
20376;DHT22;10347;51.828;6.466;2023-01-29T13:45:01;4.30;99.90
20376;DHT22;10347;51.828;6.466;2023-01-29T13:47:29;4.30;99.90
20376;DHT22;10347;51.828;6.466;2023-01-29T13:52:43;4.30;99.90
20376;DHT22;10347;51.828;6.466;2023-01-29T14:10:40;4.40;99.90
20376;DHT22;10347;51.828;6.466;2023-01-29T14:15:45;4.40;99.90
20376;DHT22;10347;51.828;6.466;2023-01-29T14:18:32;4.40;99.90
20376;DHT22;10347;51.828;6.466;2023-01-29T14:21:01;4.40;99.90
20376;DHT22;10347;51.828;6.466;2023-01-29T14:23:34;4.40;99.90
20376;DHT22;10347;51.828;6.466;2023-01-29T14:26:03;4.40;99.90
20376;DHT22;10347;51.828;6.466;2023-01-29T14:28:31;4.50;99.90
20376;DHT22;10347;51.828;6.466;2023-01-29T14:30:57;4.40;99.90
20376;DHT22;10347;51.828;6.466;2023-01-29T14:33:42;4.40;99.90
20376;DHT22;10347;51.828;6.466;2023-01-29T14:36:14;4.50;99.90
20376;DHT22;10347;51.828;6.466;2023-01-29T14:38:46;4.50;99.90
20376;DHT22;10347;51.828;6.466;2023-01-29T14:41:24;4.50;99.90
20376;DHT22;10347;51.828;6.466;2023-01-29T14:46:55;4.50;99.90
20376;DHT22;10347;51.828;6.466;2023-01-29T14:49:55;4.50;99.90
20376;DHT22;10347;51.828;6.466;2023-01-29T14:52:36;4.50;99.90
20376;DHT22;10347;51.828;6.466;2023-01-29T14:55:06;4.50;99.90
20376;DHT22;10347;51.828;6.466;2023-01-29T14:57:33;4.50;99.90
20376;DHT22;10347;51.828;6.466;2023-01-29T15:00:02;4.50;99.90
20376;DHT22;10347;51.828;6.466;2023-01-29T15:02:37;4.50;99.90
20376;DHT22;10347;51.828;6.466;2023-01-29T15:05:07;4.50;99.90
20376;DHT22;10347;51.828;6.466;2023-01-29T15:10:38;4.50;99.90
20376;DHT22;10347;51.828;6.466;2023-01-29T15:13:37;4.50;99.90
20376;DHT22;10347;51.828;6.466;2023-01-29T15:16:30;4.50;99.90
20376;DHT22;10347;51.828;6.466;2023-01-29T15:19:07;4.50;99.90
20376;DHT22;10347;51.828;6.466;2023-01-29T15:21:36;4.50;99.90
20376;DHT22;10347;51.828;6.466;2023-01-29T15:24:05;4.50;99.90
20376;DHT22;10347;51.828;6.466;2023-01-29T15:26:31;4.50;99.90
20376;DHT22;10347;51.828;6.466;2023-01-29T15:28:59;4.50;99.90
20376;DHT22;10347;51.828;6.466;2023-01-29T15:31:25;4.50;99.90
20376;DHT22;10347;51.828;6.466;2023-01-29T15:33:54;4.50;99.90
20376;DHT22;10347;51.828;6.466;2023-01-29T15:36:26;4.60;99.90
20376;DHT22;10347;51.828;6.466;2023-01-29T15:39:13;4.60;99.90
20376;DHT22;10347;51.828;6.466;2023-01-29T15:41:39;4.60;99.90
20376;DHT22;10347;51.828;6.466;2023-01-29T15:44:16;4.60;99.90
20376;DHT22;10347;51.828;6.466;2023-01-29T15:46:46;4.60;99.90
20376;DHT22;10347;51.828;6.466;2023-01-29T15:49:20;4.60;99.90
20376;DHT22;10347;51.828;6.466;2023-01-29T15:51:54;4.60;99.90
20376;DHT22;10347;51.828;6.466;2023-01-29T15:54:21;4.60;99.90
20376;DHT22;10347;51.828;6.466;2023-01-29T15:56:50;4.60;99.90
20376;DHT22;10347;51.828;6.466;2023-01-29T15:59:22;4.60;99.90
20376;DHT22;10347;51.828;6.466;2023-01-29T16:01:49;4.60;99.90
20376;DHT22;10347;51.828;6.466;2023-01-29T16:04:26;4.60;99.90
20376;DHT22;10347;51.828;6.466;2023-01-29T16:06:56;4.60;99.90
20376;DHT22;10347;51.828;6.466;2023-01-29T16:09:24;4.60;99.90
20376;DHT22;10347;51.828;6.466;2023-01-29T16:11:52;4.60;99.90
20376;DHT22;10347;51.828;6.466;2023-01-29T16:14:21;4.60;99.90
20376;DHT22;10347;51.828;6.466;2023-01-29T16:16:47;4.60;99.90
20376;DHT22;10347;51.828;6.466;2023-01-29T16:19:24;4.60;99.90
20376;DHT22;10347;51.828;6.466;2023-01-29T16:21:57;4.60;99.90
20376;DHT22;10347;51.828;6.466;2023-01-29T16:24:23;4.60;99.90
20376;DHT22;10347;51.828;6.466;2023-01-29T16:26:52;4.60;99.90
20376;DHT22;10347;51.828;6.466;2023-01-29T16:29:27;4.60;99.90
20376;DHT22;10347;51.828;6.466;2023-01-29T16:31:55;4.60;99.90
20376;DHT22;10347;51.828;6.466;2023-01-29T16:34:29;4.60;99.90
20376;DHT22;10347;51.828;6.466;2023-01-29T16:36:57;4.60;99.90
20376;DHT22;10347;51.828;6.466;2023-01-29T16:39:34;4.60;99.90
20376;DHT22;10347;51.828;6.466;2023-01-29T16:42:20;4.60;99.90
20376;DHT22;10347;51.828;6.466;2023-01-29T16:44:51;4.60;99.90
20376;DHT22;10347;51.828;6.466;2023-01-29T16:47:33;4.60;99.90
20376;DHT22;10347;51.828;6.466;2023-01-29T16:50:37;4.70;99.90
20376;DHT22;10347;51.828;6.466;2023-01-29T16:53:17;4.70;99.90
20376;DHT22;10347;51.828;6.466;2023-01-29T16:55:46;4.70;99.90
20376;DHT22;10347;51.828;6.466;2023-01-29T16:58:19;4.70;99.90
20376;DHT22;10347;51.828;6.466;2023-01-29T17:00:52;4.70;99.90
20376;DHT22;10347;51.828;6.466;2023-01-29T17:03:19;4.70;99.90
20376;DHT22;10347;51.828;6.466;2023-01-29T17:05:46;4.70;99.90
20376;DHT22;10347;51.828;6.466;2023-01-29T17:08:26;4.70;99.90
20376;DHT22;10347;51.828;6.466;2023-01-29T17:10:53;4.70;99.90
20376;DHT22;10347;51.828;6.466;2023-01-29T17:13:41;4.70;99.90
20376;DHT22;10347;51.828;6.466;2023-01-29T17:18:44;4.70;99.90
20376;DHT22;10347;51.828;6.466;2023-01-29T17:21:10;4.70;99.90
20376;DHT22;10347;51.828;6.466;2023-01-29T17:23:36;4.70;99.90
20376;DHT22;10347;51.828;6.466;2023-01-29T17:26:01;4.70;99.90
20376;DHT22;10347;51.828;6.466;2023-01-29T17:28:27;4.70;99.90
20376;DHT22;10347;51.828;6.466;2023-01-29T17:30:52;4.70;99.90
20376;DHT22;10347;51.828;6.466;2023-01-29T17:33:18;4.70;99.90
20376;DHT22;10347;51.828;6.466;2023-01-29T17:35:48;4.70;99.90
20376;DHT22;10347;51.828;6.466;2023-01-29T17:38:15;4.70;99.90
20376;DHT22;10347;51.828;6.466;2023-01-29T17:43:18;4.70;99.90
20376;DHT22;10347;51.828;6.466;2023-01-29T17:45:45;4.70;99.90
20376;DHT22;10347;51.828;6.466;2023-01-29T17:48:20;4.80;99.90
20376;DHT22;10347;51.828;6.466;2023-01-29T17:50:48;4.70;99.90
20376;DHT22;10347;51.828;6.466;2023-01-29T17:53:15;4.80;99.90
20376;DHT22;10347;51.828;6.466;2023-01-29T17:55:41;4.80;99.90
20376;DHT22;10347;51.828;6.466;2023-01-29T17:58:19;4.80;99.90
20376;DHT22;10347;51.828;6.466;2023-01-29T18:00:45;4.70;99.90
20376;DHT22;10347;51.828;6.466;2023-01-29T18:03:11;4.70;99.90
20376;DHT22;10347;51.828;6.466;2023-01-29T18:05:37;4.70;99.90
20376;DHT22;10347;51.828;6.466;2023-01-29T18:08:12;4.70;99.90
20376;DHT22;10347;51.828;6.466;2023-01-29T18:10:38;4.70;99.90
20376;DHT22;10347;51.828;6.466;2023-01-29T18:13:04;4.70;99.90
20376;DHT22;10347;51.828;6.466;2023-01-29T18:15:29;4.70;99.90
20376;DHT22;10347;51.828;6.466;2023-01-29T18:17:55;4.70;99.90
20376;DHT22;10347;51.828;6.466;2023-01-29T18:20:22;4.70;99.90
20376;DHT22;10347;51.828;6.466;2023-01-29T18:22:50;4.70;99.90
20376;DHT22;10347;51.828;6.466;2023-01-29T18:25:15;4.70;99.90
20376;DHT22;10347;51.828;6.466;2023-01-29T18:27:41;4.70;99.90
20376;DHT22;10347;51.828;6.466;2023-01-29T18:30:09;4.70;99.90